createdAt,value
2022-08-22T00:01:47.476Z,95655.81
2022-08-22T00:03:10.196Z,95616.63
2022-08-22T00:04:23.720Z,95625.56
2022-08-22T00:06:58.309Z,95607.56
2022-08-22T00:09:37.076Z,95630.97
2022-08-22T00:12:18.837Z,95651.91
2022-08-22T00:14:52.625Z,95656.84
2022-08-22T00:17:41.325Z,95654.41
2022-08-22T00:20:15.013Z,95629.47
2022-08-22T00:22:49.089Z,95659.00
2022-08-22T00:25:43.621Z,95658.41
2022-08-22T00:28:15.741Z,95655.47
2022-08-22T00:30:54.414Z,95655.47
2022-08-22T00:33:32.719Z,95667.75
2022-08-22T00:36:18.017Z,95644.31
2022-08-22T00:38:54.358Z,95615.59
2022-08-22T00:41:56.509Z,95657.81
2022-08-22T00:44:58.528Z,95654.88
2022-08-22T00:47:54.030Z,95662.22
2022-08-22T00:50:59.865Z,95666.84
2022-08-22T00:53:44.346Z,95657.41
2022-08-22T00:56:40.710Z,95658.38
2022-08-22T00:59:28.581Z,95538.78
2022-08-22T01:02:05.605Z,95643.63
2022-08-22T01:04:51.650Z,95656.00
2022-08-22T01:07:38.158Z,95657.69
2022-08-22T01:10:24.430Z,95655.28
2022-08-22T01:13:16.460Z,95603.00
2022-08-22T01:15:47.957Z,95657.78
2022-08-22T01:18:44.229Z,95602.50
2022-08-22T01:21:44.208Z,95657.28
2022-08-22T01:25:12.517Z,95653.75
2022-08-22T01:28:10.396Z,95657.47
2022-08-22T01:31:00.549Z,95599.00
2022-08-22T01:34:19.145Z,95660.06
2022-08-22T01:37:10.269Z,95649.91
2022-08-22T01:40:19.619Z,95652.50
2022-08-22T01:43:06.341Z,95635.03
2022-08-22T01:46:06.839Z,95646.78
2022-08-22T01:48:42.968Z,95609.13
2022-08-22T01:51:23.259Z,95642.69
2022-08-22T01:54:02.092Z,95635.63
2022-08-22T01:56:36.613Z,95606.28
2022-08-22T01:59:10.981Z,95644.88
2022-08-22T02:02:00.176Z,95621.56
2022-08-22T02:04:38.967Z,95607.22
2022-08-22T02:07:16.258Z,95633.69
2022-08-22T02:09:54.473Z,95623.50
2022-08-22T02:12:31.416Z,95561.41
2022-08-22T02:15:14.452Z,95632.59
2022-08-22T02:17:57.199Z,95643.44
2022-08-22T02:20:35.400Z,95644.00
2022-08-22T02:23:17.395Z,95608.50
2022-08-22T02:25:53.863Z,95650.59
2022-08-22T02:28:57.068Z,95641.97
2022-08-22T02:31:39.518Z,95644.25
2022-08-22T02:34:26.356Z,95644.31
2022-08-22T02:37:04.078Z,95624.56
2022-08-22T02:39:43.556Z,95652.63
2022-08-22T02:42:22.891Z,95643.75
2022-08-22T02:45:00.117Z,95643.75
2022-08-22T02:47:38.123Z,95611.84
2022-08-22T02:50:17.526Z,95593.81
2022-08-22T02:52:57.671Z,95546.00
2022-08-22T02:55:40.837Z,95648.56
2022-08-22T02:58:17.541Z,95618.78
2022-08-22T03:00:51.269Z,95642.94
2022-08-22T03:03:25.292Z,95643.19
2022-08-22T03:06:01.836Z,95638.91
2022-08-22T03:08:34.202Z,95644.09
2022-08-22T03:11:17.293Z,95631.25
2022-08-22T03:13:56.164Z,95644.69
2022-08-22T03:16:31.749Z,95641.16
2022-08-22T03:19:13.099Z,95633.84
2022-08-22T03:21:55.261Z,95631.44
2022-08-22T03:24:31.797Z,95631.75
2022-08-22T03:27:07.806Z,95635.25
2022-08-22T03:29:41.093Z,95638.56
2022-08-22T03:32:15.445Z,95631.50
2022-08-22T03:34:59.750Z,95632.31
2022-08-22T03:37:39.646Z,95627.19
2022-08-22T03:40:22.751Z,95630.56
2022-08-22T03:43:25.098Z,95629.97
2022-08-22T03:46:35.872Z,95630.56
2022-08-22T03:49:46.004Z,95630.94
2022-08-22T03:52:59.251Z,95633.94
2022-08-22T03:55:36.154Z,95636.94
2022-08-22T03:58:32.583Z,95599.91
2022-08-22T04:01:46.545Z,95623.06
2022-08-22T04:04:52.493Z,95638.91
2022-08-22T04:07:46.910Z,95635.63
2022-08-22T04:10:34.080Z,95637.84
2022-08-22T04:13:36.297Z,95641.13
2022-08-22T04:16:41.577Z,95644.41
2022-08-22T04:19:38.936Z,95610.91
2022-08-22T04:22:22.100Z,95643.31
2022-08-22T04:24:55.713Z,95647.94
2022-08-22T04:27:29.248Z,95411.09
2022-08-22T04:30:03.611Z,95616.66
2022-08-22T04:32:38.697Z,95630.09
2022-08-22T04:35:12.669Z,95621.00
2022-08-22T04:37:48.364Z,95658.03
2022-08-22T04:40:23.517Z,95643.53
2022-08-22T04:42:58.630Z,95662.88
2022-08-22T04:45:34.996Z,95664.75
2022-08-22T04:48:11.085Z,95651.44
2022-08-22T04:50:47.180Z,95664.75
2022-08-22T04:53:28.932Z,95665.56
2022-08-22T04:56:08.013Z,95661.75
2022-08-22T04:58:47.125Z,95654.88
2022-08-22T05:01:20.792Z,95672.81
2022-08-22T05:03:53.403Z,95672.66
2022-08-22T05:06:27.019Z,95673.09
2022-08-22T05:08:58.453Z,95673.63
2022-08-22T05:11:28.162Z,95674.13
2022-08-22T05:14:00.489Z,95675.97
2022-08-22T05:16:33.604Z,95676.19
2022-08-22T05:19:06.235Z,95677.78
2022-08-22T05:21:38.931Z,95679.41
2022-08-22T05:24:11.873Z,95671.88
2022-08-22T05:26:44.851Z,95680.72
2022-08-22T05:29:18.688Z,95683.66
2022-08-22T05:31:53.422Z,95681.94
2022-08-22T05:34:26.146Z,95686.78
2022-08-22T05:36:58.502Z,95684.59
2022-08-22T05:39:30.470Z,95684.53
2022-08-22T05:42:01.988Z,95695.00
2022-08-22T05:44:34.868Z,95699.53
2022-08-22T05:47:13.789Z,95697.53
2022-08-22T05:49:50.774Z,95667.19
2022-08-22T05:52:29.848Z,95699.78
2022-08-22T05:55:06.716Z,95699.00
2022-08-22T05:57:40.284Z,95696.47
2022-08-22T06:00:13.059Z,95698.28
2022-08-22T06:02:55.547Z,95674.41
2022-08-22T06:05:28.162Z,95700.69
2022-08-22T06:08:02.842Z,95677.16
2022-08-22T06:10:41.234Z,95707.19
2022-08-22T06:13:16.592Z,95709.00
2022-08-22T06:16:02.233Z,95714.03
2022-08-22T06:18:34.858Z,95711.44
2022-08-22T06:21:06.053Z,95721.09
2022-08-22T06:23:38.798Z,95711.75
2022-08-22T06:26:20.668Z,95717.09
2022-08-22T06:28:55.452Z,95715.41
2022-08-22T06:31:29.647Z,95710.38
2022-08-22T06:34:06.252Z,95708.88
2022-08-22T06:36:39.337Z,95710.41
2022-08-22T06:39:19.985Z,95711.13
2022-08-22T06:41:54.270Z,95711.03
2022-08-22T06:44:25.590Z,95720.69
2022-08-22T06:46:58.562Z,95715.13
2022-08-22T06:49:31.265Z,95716.97
2022-08-22T06:52:03.678Z,95712.50
2022-08-22T06:54:36.697Z,95712.13
2022-08-22T06:57:07.693Z,95661.53
2022-08-22T06:59:40.388Z,95702.84
2022-08-22T07:02:23.319Z,95707.53
2022-08-22T07:04:53.976Z,95708.22
2022-08-22T07:07:27.489Z,95720.59
2022-08-22T07:09:57.826Z,95698.38
2022-08-22T07:12:30.871Z,95713.84
2022-08-22T07:15:13.126Z,95707.97
2022-08-22T07:17:51.528Z,95715.75
2022-08-22T07:20:29.768Z,95716.13
2022-08-22T07:23:01.843Z,95713.78
2022-08-22T07:25:31.932Z,95675.56
2022-08-22T07:28:14.523Z,95705.53
2022-08-22T07:30:56.003Z,95709.34
2022-08-22T07:33:44.286Z,95704.41
2022-08-22T07:36:32.019Z,95716.00
2022-08-22T07:39:20.569Z,95721.03
2022-08-22T07:42:02.181Z,95712.91
2022-08-22T07:44:36.174Z,95720.31
2022-08-22T07:47:09.859Z,95715.59
2022-08-22T07:49:40.075Z,95716.22
2022-08-22T07:52:21.170Z,95716.94
2022-08-22T07:54:56.413Z,95715.22
2022-08-22T07:57:30.083Z,95624.00
2022-08-22T07:59:59.719Z,95722.47
2022-08-22T08:02:28.721Z,95712.09
2022-08-22T08:05:01.768Z,95713.72
2022-08-22T08:07:32.438Z,95705.69
2022-08-22T08:10:04.873Z,95714.88
2022-08-22T08:12:37.042Z,95709.59
2022-08-22T08:15:09.720Z,95725.38
2022-08-22T08:17:41.366Z,95723.63
2022-08-22T08:20:13.541Z,95729.38
2022-08-22T08:22:48.177Z,95698.09
2022-08-22T08:25:21.128Z,95729.56
2022-08-22T08:28:09.898Z,95717.38
2022-08-22T08:30:43.506Z,95720.44
2022-08-22T08:33:26.321Z,95736.50
2022-08-22T08:36:02.390Z,95737.94
2022-08-22T08:38:37.663Z,95732.00
2022-08-22T08:41:46.417Z,95731.53
2022-08-22T08:44:36.011Z,95731.00
2022-08-22T08:47:23.046Z,95734.91
2022-08-22T08:50:19.784Z,95732.19
2022-08-22T08:53:04.534Z,95735.38
2022-08-22T08:55:55.800Z,95729.41
2022-08-22T08:58:38.097Z,95735.50
2022-08-22T09:01:31.289Z,95739.84
2022-08-22T09:04:35.528Z,95736.28
2022-08-22T09:07:31.341Z,95687.97
2022-08-22T09:10:19.618Z,95739.91
2022-08-22T09:13:12.972Z,95729.94
2022-08-22T09:16:10.095Z,95731.72
2022-08-22T09:19:07.045Z,95732.63
2022-08-22T09:22:05.656Z,95728.44
2022-08-22T09:25:23.915Z,95729.50
2022-08-22T09:31:57.075Z,95732.16
2022-08-22T09:34:36.105Z,95741.63
2022-08-22T09:37:17.996Z,95740.28
2022-08-22T09:39:57.370Z,95744.69
2022-08-22T09:42:37.205Z,95741.03
2022-08-22T09:45:34.735Z,95732.41
2022-08-22T09:48:13.187Z,95743.28
2022-08-22T09:50:54.565Z,95729.81
2022-08-22T09:53:45.905Z,95736.09
2022-08-22T09:56:26.064Z,95729.34
2022-08-22T09:59:02.359Z,95726.78
2022-08-22T10:01:34.857Z,95731.72
2022-08-22T10:04:44.885Z,95738.34
2022-08-22T10:07:34.118Z,95726.19
2022-08-22T10:10:14.784Z,95735.41
2022-08-22T10:12:53.323Z,95695.88
2022-08-22T10:15:31.171Z,95739.72
2022-08-22T10:18:13.126Z,95706.69
2022-08-22T10:21:05.343Z,95738.59
2022-08-22T10:23:40.972Z,95740.75
2022-08-22T10:26:25.624Z,95732.31
2022-08-22T10:29:00.459Z,95734.59
2022-08-22T10:31:55.548Z,95737.91
2022-08-22T10:34:36.990Z,95720.34
2022-08-22T10:37:23.916Z,95720.25
2022-08-22T10:40:03.272Z,95720.28
2022-08-22T10:42:36.553Z,95719.88
2022-08-22T10:45:32.107Z,95726.03
2022-08-22T10:48:36.974Z,95723.56
2022-08-22T10:51:35.376Z,95713.63
2022-08-22T10:54:37.084Z,95705.59
2022-08-22T10:57:26.738Z,95707.91
2022-08-22T11:00:04.303Z,95704.94
2022-08-22T11:02:42.233Z,95641.41
2022-08-22T11:05:28.917Z,95699.28
2022-08-22T11:08:08.272Z,95703.50
2022-08-22T11:10:56.044Z,95677.22
2022-08-22T11:13:31.955Z,95703.78
2022-08-22T11:16:06.509Z,95636.13
2022-08-22T11:19:15.564Z,95690.69
2022-08-22T11:22:01.824Z,95683.72
2022-08-22T11:25:14.169Z,95687.72
2022-08-22T11:28:00.464Z,95668.28
2022-08-22T11:30:36.480Z,95683.63
2022-08-22T11:33:46.139Z,95681.41
2022-08-22T11:36:31.153Z,95682.69
2022-08-22T11:39:18.015Z,95657.19
2022-08-22T11:41:56.837Z,95683.09
2022-08-22T11:44:50.532Z,95681.50
2022-08-22T11:47:27.100Z,95673.16
2022-08-22T11:50:01.769Z,95673.59
2022-08-22T11:52:59.253Z,95668.41
2022-08-22T11:55:35.300Z,95653.66
2022-08-22T11:58:28.971Z,95660.25
2022-08-22T12:01:05.083Z,95649.44
2022-08-22T12:03:59.830Z,95671.28
2022-08-22T12:06:56.465Z,95633.84
2022-08-22T12:09:40.053Z,95649.13
2022-08-22T12:12:33.250Z,95639.69
2022-08-22T12:15:14.119Z,95602.72
2022-08-22T12:18:19.930Z,95652.78
2022-08-22T12:21:17.244Z,95648.75
2022-08-22T12:24:11.291Z,95659.84
2022-08-22T12:27:06.531Z,95659.97
2022-08-22T12:29:45.286Z,95656.28
2022-08-22T12:32:45.739Z,95650.88
2022-08-22T12:35:30.605Z,95648.56
2022-08-22T12:38:29.142Z,95648.41
2022-08-22T12:41:35.051Z,95641.03
2022-08-22T12:44:20.350Z,95619.47
2022-08-22T12:47:07.457Z,95622.19
2022-08-22T12:49:52.535Z,95635.06
2022-08-22T12:52:38.555Z,95642.06
2022-08-22T12:55:39.860Z,95624.16
2022-08-22T12:58:23.310Z,95618.06
2022-08-22T13:00:52.910Z,95634.75
2022-08-22T13:03:26.430Z,95608.03
2022-08-22T13:06:00.498Z,95634.72
2022-08-22T13:08:34.541Z,95638.28
2022-08-22T13:11:09.986Z,95633.50
2022-08-22T13:13:56.176Z,95631.44
2022-08-22T13:16:36.604Z,95625.69
2022-08-22T13:19:13.574Z,95625.88
2022-08-22T13:21:49.106Z,95625.69
2022-08-22T13:24:38.737Z,95601.91
2022-08-22T13:27:12.860Z,95628.78
2022-08-22T13:29:50.306Z,95600.75
2022-08-22T13:32:27.745Z,95629.69
2022-08-22T13:34:58.682Z,95606.88
2022-08-22T13:37:37.486Z,95629.28
2022-08-22T13:40:33.770Z,95638.97
2022-08-22T13:43:09.230Z,95631.22
2022-08-22T13:45:39.741Z,95605.13
2022-08-22T13:48:12.769Z,95621.66
2022-08-22T13:51:02.178Z,95598.31
2022-08-22T13:53:41.583Z,95618.25
2022-08-22T13:56:20.963Z,95644.22
2022-08-22T13:58:52.764Z,95612.00
2022-08-22T14:01:37.970Z,95608.50
2022-08-22T14:04:28.617Z,95561.25
2022-08-22T14:07:25.509Z,95613.84
2022-08-22T14:09:58.023Z,95613.03
2022-08-22T14:12:33.395Z,95617.00
2022-08-22T14:15:23.570Z,95616.84
2022-08-22T14:17:53.764Z,95617.28
2022-08-22T14:20:32.104Z,95620.50
2022-08-22T14:23:04.838Z,95613.44
2022-08-22T14:25:39.074Z,95621.94
2022-08-22T14:28:22.338Z,95617.22
2022-08-22T14:31:03.925Z,95594.53
2022-08-22T14:33:40.901Z,95624.41
2022-08-22T14:36:17.746Z,95629.56
2022-08-22T14:38:51.841Z,95625.94
2022-08-22T14:41:56.256Z,95626.28
2022-08-22T14:44:26.801Z,95626.22
2022-08-22T14:46:59.266Z,95618.78
2022-08-22T14:49:38.266Z,95607.16
2022-08-22T14:52:19.521Z,95619.75
2022-08-22T14:54:50.938Z,95595.53
2022-08-22T14:57:21.254Z,95620.34
2022-08-22T14:59:54.081Z,95607.44
2022-08-22T15:02:29.497Z,95612.84
2022-08-22T15:05:02.389Z,95612.38
2022-08-22T15:07:37.454Z,95602.09
2022-08-22T15:10:11.970Z,95617.97
2022-08-22T15:12:46.744Z,95620.44
2022-08-22T15:15:29.634Z,95570.59
2022-08-22T15:17:58.792Z,95610.81
2022-08-22T15:20:36.193Z,95612.03
2022-08-22T15:23:10.147Z,95604.97
2022-08-22T15:25:41.880Z,95606.41
2022-08-22T15:28:20.806Z,95606.25
2022-08-22T15:31:03.586Z,95596.75
2022-08-22T15:33:35.718Z,95596.31
2022-08-22T15:36:15.887Z,95597.16
2022-08-22T15:38:48.196Z,95594.63
2022-08-22T15:41:40.349Z,95592.19
2022-08-22T15:44:33.130Z,95592.84
2022-08-22T15:47:11.949Z,95575.84
2022-08-22T15:49:56.333Z,95594.28
2022-08-22T15:52:28.893Z,95556.78
2022-08-22T15:55:23.867Z,95585.94
2022-08-22T15:58:02.552Z,95592.53
2022-08-22T16:00:36.068Z,95582.66
2022-08-22T16:03:25.217Z,95580.47
2022-08-22T16:05:57.246Z,95575.94
2022-08-22T16:08:33.315Z,95587.72
2022-08-22T16:11:29.568Z,95584.16
2022-08-22T16:14:23.676Z,95582.41
2022-08-22T16:17:00.992Z,95587.00
2022-08-22T16:19:32.457Z,95582.66
2022-08-22T16:22:15.431Z,95583.97
2022-08-22T16:25:10.141Z,95568.88
2022-08-22T16:27:54.601Z,95575.25
2022-08-22T16:30:35.149Z,95568.88
2022-08-22T16:33:04.707Z,95581.28
2022-08-22T16:36:26.376Z,95577.72
2022-08-22T16:38:58.957Z,95579.00
2022-08-22T16:41:34.064Z,95585.09
2022-08-22T16:44:39.331Z,95585.38
2022-08-22T16:47:17.323Z,95561.66
2022-08-22T16:50:01.127Z,95568.63
2022-08-22T16:52:52.139Z,95578.94
2022-08-22T16:55:47.183Z,95578.94
2022-08-22T16:58:44.996Z,95581.13
2022-08-22T17:01:32.643Z,95584.91
2022-08-22T17:04:10.529Z,95536.16
2022-08-22T17:06:57.537Z,95580.72
2022-08-22T17:09:46.922Z,95588.47
2022-08-22T17:12:32.848Z,95561.31
2022-08-22T17:15:18.644Z,95586.22
2022-08-22T17:17:59.582Z,95591.47
2022-08-22T17:20:47.536Z,95586.66
2022-08-22T17:23:26.516Z,95588.16
2022-08-22T17:26:03.181Z,95589.66
2022-08-22T17:28:42.485Z,95588.84
2022-08-22T17:31:18.795Z,95590.34
2022-08-22T17:34:05.684Z,95591.31
2022-08-22T17:37:03.049Z,95592.69
2022-08-22T17:47:51.201Z,95599.22
2022-08-22T17:50:24.275Z,95546.25
2022-08-22T17:52:58.838Z,95607.13
2022-08-22T17:55:31.684Z,95611.69
2022-08-22T17:58:07.926Z,95615.91
2022-08-22T18:00:40.618Z,95613.03
2022-08-22T18:03:16.982Z,95609.72
2022-08-22T18:05:52.857Z,95598.81
2022-08-22T18:09:33.390Z,95622.28
2022-08-22T18:11:30.240Z,95624.44
2022-08-22T18:14:11.492Z,95616.06
2022-08-22T18:16:52.301Z,95626.44
2022-08-22T18:19:37.892Z,95624.69
2022-08-22T18:22:11.885Z,95633.59
2022-08-22T18:24:47.657Z,95633.47
2022-08-22T18:27:34.403Z,95607.16
2022-08-22T18:30:15.927Z,95637.44
2022-08-22T18:32:54.761Z,95640.06
2022-08-22T18:35:30.257Z,95607.53
2022-08-22T18:38:19.682Z,95653.03
2022-08-22T18:40:55.725Z,95647.28
2022-08-22T18:43:36.897Z,95653.78
2022-08-22T18:46:42.814Z,95654.31
2022-08-22T18:49:28.555Z,95628.31
2022-08-22T18:52:14.842Z,95662.13
2022-08-22T18:55:04.419Z,95662.44
2022-08-22T18:57:51.030Z,95663.09
2022-08-22T19:00:22.194Z,95661.69
2022-08-22T19:03:24.175Z,95662.84
2022-08-22T19:09:58.648Z,95665.19
2022-08-22T19:12:46.404Z,95655.66
2022-08-22T19:15:28.945Z,95677.47
2022-08-22T19:18:15.806Z,95683.59
2022-08-22T19:21:02.051Z,95613.28
2022-08-22T19:23:49.386Z,95683.19
2022-08-22T19:26:38.431Z,95695.41
2022-08-22T19:29:29.885Z,95667.03
2022-08-22T19:32:00.886Z,95683.09
2022-08-22T19:34:39.438Z,95693.38
2022-08-22T19:37:33.106Z,95696.59
2022-08-22T19:40:05.613Z,95684.44
2022-08-22T19:42:40.621Z,95574.16
2022-08-22T19:45:26.046Z,95698.56
2022-08-22T19:47:59.648Z,95694.53
2022-08-22T19:50:31.605Z,95699.78
2022-08-22T19:53:24.553Z,95696.84
2022-08-22T19:56:08.625Z,95672.47
2022-08-22T19:58:55.761Z,95699.13
2022-08-22T20:01:44.536Z,95691.06
2022-08-22T20:04:36.995Z,95706.53
2022-08-22T20:07:15.401Z,95703.19
2022-08-22T20:09:54.553Z,95694.34
2022-08-22T20:12:32.301Z,95682.81
2022-08-22T20:15:18.476Z,95705.63
2022-08-22T20:18:11.642Z,95707.25
2022-08-22T20:20:54.190Z,95704.22
2022-08-22T20:23:29.528Z,95687.06
2022-08-22T20:25:59.356Z,95705.81
2022-08-22T20:28:40.775Z,95688.63
2022-08-22T20:31:22.496Z,95619.50
2022-08-22T20:33:57.047Z,95706.31
2022-08-22T20:36:28.692Z,95705.19
2022-08-22T20:39:03.451Z,95702.94
2022-08-22T20:41:37.232Z,95627.88
2022-08-22T20:44:16.083Z,95706.66
2022-08-22T20:46:55.684Z,95695.91
2022-08-22T20:49:29.750Z,95709.38
2022-08-22T20:52:01.005Z,95708.41
2022-08-22T20:54:31.197Z,95711.75
2022-08-22T20:57:02.661Z,95705.50
2022-08-22T20:59:37.301Z,95707.75
2022-08-22T21:02:15.175Z,95701.03
2022-08-22T21:04:53.129Z,95699.25
2022-08-22T21:07:27.900Z,95700.53
2022-08-22T21:10:22.537Z,95705.66
2022-08-22T21:13:10.853Z,95699.22
2022-08-22T21:15:42.427Z,95695.84
2022-08-22T21:18:13.869Z,95653.09
2022-08-22T21:20:42.889Z,95699.50
2022-08-22T21:23:21.469Z,95712.50
2022-08-22T21:25:57.180Z,95712.63
2022-08-22T21:28:35.733Z,95712.47
2022-08-22T21:31:12.957Z,95707.94
2022-08-22T21:33:48.827Z,95705.84
2022-08-22T21:36:19.398Z,95708.41
2022-08-22T21:38:51.517Z,95627.63
2022-08-22T21:41:31.984Z,95705.03
2022-08-22T21:44:26.617Z,95701.81
2022-08-22T21:46:55.557Z,95700.19
2022-08-22T21:49:27.830Z,95696.81
2022-08-22T21:51:56.544Z,95699.06
2022-08-22T21:54:43.660Z,95700.50
2022-08-22T21:57:35.252Z,95703.34
2022-08-22T22:00:11.428Z,95703.81
2022-08-22T22:02:42.253Z,95703.31
2022-08-22T22:05:17.827Z,95713.72
2022-08-22T22:07:48.034Z,95699.16
2022-08-22T22:10:19.118Z,95685.22
2022-08-22T22:12:49.013Z,95711.28
2022-08-22T22:15:21.973Z,95710.78
2022-08-22T22:17:50.944Z,95712.84
2022-08-22T22:20:23.463Z,95706.06
2022-08-22T22:22:52.352Z,95707.50
2022-08-22T22:25:39.541Z,95704.13
2022-08-22T22:28:16.780Z,95704.22
2022-08-22T22:30:50.604Z,95707.91
2022-08-22T22:33:20.021Z,95718.41
2022-08-22T22:35:52.083Z,95705.75
2022-08-22T22:38:24.090Z,95711.81
2022-08-22T22:40:53.400Z,95713.25
2022-08-22T22:43:21.946Z,95711.94
2022-08-22T22:45:50.649Z,95709.53
2022-08-22T22:48:24.343Z,95661.44
2022-08-22T22:50:55.800Z,95709.47
2022-08-22T22:53:33.736Z,95701.91
2022-08-22T22:56:09.640Z,95701.44
2022-08-22T22:58:38.537Z,95656.66
2022-08-22T23:01:11.033Z,95708.09
2022-08-22T23:03:39.639Z,95707.09
2022-08-22T23:06:14.602Z,95701.19
2022-08-22T23:08:43.477Z,95709.97
2022-08-22T23:11:13.927Z,95708.34
2022-08-22T23:13:43.267Z,95712.81
2022-08-22T23:16:14.976Z,95713.41
2022-08-22T23:18:46.061Z,95706.69
2022-08-22T23:21:20.904Z,95710.00
2022-08-22T23:23:50.385Z,95718.47
2022-08-22T23:26:19.421Z,95714.44
2022-08-22T23:28:47.985Z,95719.66
2022-08-22T23:31:18.594Z,95718.06
2022-08-22T23:33:47.635Z,95715.97
2022-08-22T23:36:20.578Z,95718.16
2022-08-22T23:38:51.754Z,95713.94
2022-08-22T23:41:22.524Z,95697.19
2022-08-22T23:43:55.709Z,95720.59
2022-08-22T23:46:26.981Z,95716.09
2022-08-22T23:48:55.789Z,95722.16
2022-08-22T23:51:27.552Z,95719.44
2022-08-22T23:53:59.040Z,95717.31
2022-08-22T23:56:30.612Z,95645.44
2022-08-22T23:59:00.703Z,95718.03
